Time;durP1;ratioP1;P1;durP2;ratioP2;P2;SDS_P1;SDS_P2;PMS_P1;PMS_P2;Temp;Humidity;BMP_temperature;BMP_pressure;BME280_temperature;BME280_humidity;BME280_pressure;Samples;Min_cycle;Max_cycle;Signal;HPM_P1;HPM_P2
2023/10/14 00:02:30;;;;;;;1.67;0.70;;;13.60;99.90;;;;;;5048225;28;20076;-84
2023/10/14 00:04:52;;;;;;;5.93;0.98;;;13.60;99.90;;;;;;5028199;28;20045;-84
2023/10/14 00:07:20;;;;;;;4.85;1.00;;;13.50;99.90;;;;;;5047498;28;20037;-83
2023/10/14 00:09:50;;;;;;;3.88;0.90;;;13.50;99.90;;;;;;5049178;28;20049;-83
2023/10/14 00:12:15;;;;;;;3.67;1.00;;;13.50;99.90;;;;;;5030619;28;20091;-84
2023/10/14 00:14:44;;;;;;;3.25;1.00;;;13.50;99.90;;;;;;5047770;28;20037;-83
2023/10/14 00:17:18;;;;;;;4.45;1.17;;;13.50;99.90;;;;;;5048354;28;20090;-83
2023/10/14 00:19:49;;;;;;;4.28;1.02;;;13.50;99.90;;;;;;5049523;28;20156;-83
2023/10/14 00:22:17;;;;;;;4.07;1.03;;;13.40;99.90;;;;;;5029449;28;20789;-83
2023/10/14 00:24:43;;;;;;;3.42;0.98;;;13.30;99.90;;;;;;5048719;28;20048;-82
2023/10/14 00:27:09;;;;;;;7.47;1.83;;;13.30;99.90;;;;;;5048801;28;20045;-83
2023/10/14 00:29:35;;;;;;;4.13;0.98;;;13.30;99.90;;;;;;5029640;28;20114;-83
2023/10/14 00:32:03;;;;;;;7.85;1.52;;;13.30;99.90;;;;;;5048180;28;20036;-83
2023/10/14 00:34:29;;;;;;;4.47;0.90;;;13.20;99.90;;;;;;5012728;28;20056;-83
2023/10/14 00:36:58;;;;;;;5.90;1.20;;;13.20;99.90;;;;;;5030105;28;20091;-83
2023/10/14 00:39:26;;;;;;;7.15;1.38;;;13.00;99.90;;;;;;5048319;28;20056;-83
2023/10/14 00:41:52;;;;;;;6.93;1.42;;;13.00;99.90;;;;;;5047288;28;20574;-83
2023/10/14 00:44:20;;;;;;;5.55;1.42;;;13.90;99.90;;;;;;5029032;28;20044;-83
2023/10/14 00:46:49;;;;;;;7.43;1.30;;;12.90;99.90;;;;;;5014592;28;20143;-83
2023/10/14 00:49:31;;;;;;;7.03;1.58;;;12.80;99.90;;;;;;5047371;28;20068;-82
2023/10/14 00:51:59;;;;;;;5.45;1.50;;;12.80;99.90;;;;;;5010994;28;20107;-83
2023/10/14 00:57:10;;;;;;;7.05;1.30;;;12.70;99.90;;;;;;5029079;28;20057;-83
2023/10/14 00:59:37;;;;;;;7.30;1.30;;;12.60;99.90;;;;;;5044174;28;20057;-83
2023/10/14 01:02:05;;;;;;;5.22;1.33;;;12.60;99.90;;;;;;5016956;28;20040;-84
2023/10/14 01:04:34;;;;;;;4.50;1.25;;;12.60;99.90;;;;;;5029616;28;20048;-83
2023/10/14 01:07:04;;;;;;;9.00;1.88;;;12.60;99.90;;;;;;5048536;28;20112;-83
2023/10/14 01:09:55;;;;;;;9.20;1.90;;;12.60;99.90;;;;;;5029869;28;20578;-83
2023/10/14 01:12:38;;;;;;;10.13;2.35;;;12.60;99.90;;;;;;5044194;28;20111;-83
2023/10/14 01:15:17;;;;;;;7.47;1.48;;;12.50;99.90;;;;;;5029872;28;20060;-83
2023/10/14 01:17:42;;;;;;;6.18;2.00;;;12.50;99.90;;;;;;5029523;28;20124;-83
2023/10/14 01:22:51;;;;;;;11.10;1.50;;;12.40;99.90;;;;;;5047198;28;20071;-83
2023/10/14 01:25:18;;;;;;;9.35;1.90;;;13.20;99.90;;;;;;5028421;28;20045;-83
2023/10/14 01:27:44;;;;;;;4.97;1.75;;;12.40;99.90;;;;;;5030037;28;20040;-83
2023/10/14 01:30:19;;;;;;;8.27;1.52;;;12.30;99.90;;;;;;5009725;28;20057;-83
2023/10/14 01:37:57;;;;;;;7.63;1.77;;;12.20;99.90;;;;;;5029723;28;20053;-83
2023/10/14 01:40:27;;;;;;;6.65;2.17;;;12.20;99.90;;;;;;5028991;28;20048;-84
2023/10/14 01:42:56;;;;;;;5.78;1.50;;;12.50;99.90;;;;;;5029095;28;20045;-83
2023/10/14 01:45:32;;;;;;;6.70;1.38;;;12.10;99.90;;;;;;5013528;28;20064;-83
2023/10/14 01:48:11;;;;;;;9.10;1.90;;;12.10;99.90;;;;;;5028556;28;20045;-83
2023/10/14 01:50:52;;;;;;;7.70;1.80;;;12.00;99.90;;;;;;5029203;28;20107;-83
2023/10/14 01:53:18;;;;;;;4.78;1.50;;;12.00;99.90;;;;;;5007044;28;20053;-83
2023/10/14 01:55:45;;;;;;;10.15;2.40;;;11.90;99.90;;;;;;5067159;28;20099;-83
2023/10/14 01:58:29;;;;;;;9.75;1.70;;;11.80;99.90;;;;;;5033545;28;20041;-84
2023/10/14 02:03:43;;;;;;;7.40;1.55;;;11.80;99.90;;;;;;5046632;28;20104;-83
2023/10/14 02:06:20;;;;;;;7.03;1.90;;;11.70;99.90;;;;;;5029164;28;20076;-83
2023/10/14 02:08:57;;;;;;;9.40;2.20;;;11.70;99.90;;;;;;5027662;28;20061;-83
2023/10/14 02:11:24;;;;;;;6.78;1.80;;;11.70;99.90;;;;;;5029642;28;20545;-83
2023/10/14 02:13:51;;;;;;;9.65;1.90;;;11.70;99.90;;;;;;5028764;28;20044;-83
2023/10/14 02:16:40;;;;;;;8.80;2.20;;;11.70;99.90;;;;;;5028578;28;20053;-83
2023/10/14 02:22:00;;;;;;;9.20;2.10;;;11.70;99.90;;;;;;5029502;28;20056;-83
2023/10/14 02:24:29;;;;;;;7.30;1.80;;;11.60;99.90;;;;;;5028649;28;20080;-83
2023/10/14 02:27:04;;;;;;;6.28;1.77;;;11.50;99.90;;;;;;5047116;28;20049;-83
2023/10/14 02:29:32;;;;;;;8.23;1.98;;;11.50;99.90;;;;;;5028327;28;20049;-83
2023/10/14 02:32:00;;;;;;;11.18;2.17;;;12.20;99.90;;;;;;5046887;28;20057;-83
2023/10/14 02:34:27;;;;;;;9.27;1.70;;;11.40;99.90;;;;;;5028630;28;20128;-84
2023/10/14 02:36:53;;;;;;;10.00;1.90;;;11.70;99.90;;;;;;5029593;28;20053;-83
2023/10/14 02:39:27;;;;;;;11.73;2.45;;;11.20;99.90;;;;;;5012304;28;20055;-82
2023/10/14 02:41:59;;;;;;;5.47;1.73;;;11.20;99.90;;;;;;5028451;28;20045;-83
2023/10/14 02:44:47;;;;;;;7.90;1.85;;;11.10;99.90;;;;;;5029048;28;20099;-82
2023/10/14 02:47:13;;;;;;;8.52;1.73;;;11.00;99.90;;;;;;5049049;28;20151;-83
2023/10/14 02:49:42;;;;;;;7.20;1.70;;;11.00;99.90;;;;;;5049998;28;20044;-83
2023/10/14 02:52:18;;;;;;;9.30;1.73;;;10.90;99.90;;;;;;5050870;28;20055;-83
2023/10/14 02:54:54;;;;;;;5.95;1.73;;;11.40;99.90;;;;;;5049647;28;20045;-83
2023/10/14 02:59:48;;;;;;;10.98;1.77;;;10.80;99.90;;;;;;5050269;28;20510;-82
2023/10/14 03:07:26;;;;;;;7.53;1.73;;;10.70;99.90;;;;;;5049184;28;20053;-83
2023/10/14 03:09:52;;;;;;;8.10;2.03;;;10.60;99.90;;;;;;5048703;28;20057;-83
2023/10/14 03:12:18;;;;;;;7.47;2.30;;;10.60;99.90;;;;;;5032589;28;20048;-83
2023/10/14 03:14:52;;;;;;;12.57;2.50;;;10.50;99.90;;;;;;5033208;28;20049;-83
2023/10/14 03:17:40;;;;;;;6.78;1.58;;;10.50;99.90;;;;;;5030961;28;20040;-83
2023/10/14 03:20:34;;;;;;;5.97;1.55;;;10.40;99.90;;;;;;5031701;28;20525;-83
2023/10/14 03:23:19;;;;;;;8.07;1.70;;;10.40;99.90;;;;;;5049760;28;20093;-83
2023/10/14 03:25:47;;;;;;;5.65;1.45;;;10.40;99.90;;;;;;5030718;28;20045;-83
2023/10/14 03:28:15;;;;;;;8.45;1.95;;;10.30;99.90;;;;;;5032652;28;20048;-83
2023/10/14 03:30:45;;;;;;;8.57;1.70;;;10.60;99.90;;;;;;5049094;28;20044;-83
2023/10/14 03:33:13;;;;;;;9.82;1.90;;;10.40;99.90;;;;;;5030262;28;20145;-83
2023/10/14 03:35:41;;;;;;;6.72;1.83;;;10.90;99.90;;;;;;5026549;28;20071;-82
2023/10/14 03:38:14;;;;;;;9.25;2.03;;;10.30;99.90;;;;;;5016247;28;20046;-83
2023/10/14 03:43:15;;;;;;;10.00;2.15;;;10.30;99.90;;;;;;5049241;28;20128;-83
2023/10/14 03:46:15;;;;;;;11.70;2.28;;;10.30;99.90;;;;;;5048634;28;20499;-83
2023/10/14 03:48:45;;;;;;;10.15;2.05;;;10.30;99.90;;;;;;5025920;28;20053;-83
2023/10/14 03:51:24;;;;;;;10.82;2.15;;;10.20;99.90;;;;;;5016430;28;20053;-83
2023/10/14 03:53:52;;;;;;;10.77;1.92;;;10.20;99.90;;;;;;5050122;28;20041;-83
2023/10/14 03:56:22;;;;;;;10.57;1.75;;;10.20;99.90;;;;;;5069385;28;20052;-83
2023/10/14 03:58:55;;;;;;;6.53;1.77;;;10.40;99.90;;;;;;5053244;28;20156;-84
2023/10/14 04:01:23;;;;;;;7.80;1.95;;;10.10;99.90;;;;;;5048258;28;20044;-83
2023/10/14 04:03:52;;;;;;;9.68;1.90;;;10.10;99.90;;;;;;5027934;28;20124;-83
2023/10/14 04:06:21;;;;;;;8.88;1.70;;;10.00;99.90;;;;;;5015021;28;20055;-83
2023/10/14 04:08:50;;;;;;;6.15;1.65;;;10.00;99.90;;;;;;5031227;28;20041;-83
2023/10/14 04:11:25;;;;;;;10.80;2.13;;;10.10;99.90;;;;;;5048124;28;20099;-83
2023/10/14 04:19:27;;;;;;;8.75;1.70;;;10.10;99.90;;;;;;5029192;28;20053;-82
2023/10/14 04:22:25;;;;;;;7.45;1.55;;;10.20;99.90;;;;;;5033511;28;20055;-83
2023/10/14 04:24:53;;;;;;;14.45;2.50;;;11.00;99.90;;;;;;5029018;28;20079;-83
2023/10/14 04:30:03;;;;;;;6.50;1.58;;;10.30;99.90;;;;;;5048577;28;20056;-83
2023/10/14 04:32:40;;;;;;;11.15;1.75;;;10.30;99.90;;;;;;5048727;28;20052;-83
2023/10/14 04:35:06;;;;;;;10.20;1.85;;;10.40;99.90;;;;;;5048000;28;20045;-83
2023/10/14 04:37:50;;;;;;;9.45;2.10;;;10.30;99.90;;;;;;5048976;28;20099;-82
2023/10/14 04:40:34;;;;;;;9.50;2.10;;;10.30;99.90;;;;;;5028800;28;20091;-83
2023/10/14 04:51:09;;;;;;;6.75;1.65;;;10.20;99.90;;;;;;5047575;28;20084;-83
2023/10/14 04:53:35;;;;;;;11.68;2.55;;;10.10;99.90;;;;;;5012344;28;21242;-83
2023/10/14 04:56:08;;;;;;;9.18;1.55;;;10.10;99.90;;;;;;5048244;28;20049;-84
2023/10/14 04:58:33;;;;;;;;;;;10.00;99.90;;;;;;5031321;28;20048;-83
2023/10/14 05:01:01;;;;;;;8.95;2.28;;;10.00;99.90;;;;;;5028799;28;20050;-83
2023/10/14 05:03:34;;;;;;;13.57;1.60;;;10.00;99.90;;;;;;5048939;28;20457;-84
2023/10/14 05:08:51;;;;;;;9.55;1.67;;;9.90;99.90;;;;;;5030336;28;20518;-83
2023/10/14 05:11:18;;;;;;;10.70;2.03;;;9.90;99.90;;;;;;5026994;28;20053;-83
2023/10/14 05:14:07;;;;;;;13.73;2.38;;;9.90;99.90;;;;;;5030111;28;20051;-83
2023/10/14 05:16:31;;;;;;;10.25;1.73;;;10.80;99.90;;;;;;5027149;28;20072;-83
2023/10/14 05:19:11;;;;;;;9.43;1.70;;;9.90;99.90;;;;;;5047532;28;20049;-83
2023/10/14 05:21:42;;;;;;;12.65;2.33;;;9.90;99.90;;;;;;5001716;28;20135;-84
2023/10/14 05:24:10;;;;;;;9.50;1.33;;;9.90;99.90;;;;;;5029198;28;20406;-82
2023/10/14 05:26:58;;;;;;;6.13;1.50;;;9.90;99.90;;;;;;5047842;28;20045;-83
2023/10/14 05:29:26;;;;;;;9.63;1.60;;;9.90;99.90;;;;;;5044352;28;20045;-83
2023/10/14 05:31:52;;;;;;;6.43;1.63;;;9.90;99.90;;;;;;5048065;28;20045;-83
2023/10/14 05:34:25;;;;;;;9.63;2.03;;;9.80;99.90;;;;;;5011268;28;20047;-83
2023/10/14 05:36:57;;;;;;;6.85;1.83;;;9.80;99.90;;;;;;5044804;28;20049;-82
2023/10/14 05:39:24;;;;;;;7.18;1.63;;;9.80;99.90;;;;;;5046936;28;20554;-83
2023/10/14 05:41:58;;;;;;;12.15;2.30;;;9.80;99.90;;;;;;5012005;28;20430;-84
2023/10/14 05:44:27;;;;;;;7.78;1.92;;;9.90;99.90;;;;;;5044943;28;20049;-81
2023/10/14 05:46:54;;;;;;;10.32;2.00;;;10.20;99.90;;;;;;5027639;28;20053;-82
2023/10/14 05:49:24;;;;;;;11.73;2.00;;;9.70;99.90;;;;;;5012588;28;20045;-82
2023/10/14 05:51:52;;;;;;;7.38;1.77;;;9.70;99.90;;;;;;5030143;28;20088;-82
2023/10/14 05:54:19;;;;;;;12.93;2.15;;;9.60;99.90;;;;;;5029964;28;20461;-82
2023/10/14 05:56:45;;;;;;;11.40;1.85;;;9.60;99.90;;;;;;5029426;28;20049;-82
2023/10/14 05:59:10;;;;;;;9.50;1.95;;;9.60;99.90;;;;;;5045280;28;20043;-82
2023/10/14 06:01:38;;;;;;;8.23;2.03;;;9.60;99.90;;;;;;5028309;28;20091;-81
2023/10/14 06:04:05;;;;;;;12.27;2.63;;;9.60;99.90;;;;;;5030117;28;20579;-81
2023/10/14 06:06:31;;;;;;;11.23;2.30;;;9.60;99.90;;;;;;5026932;28;20052;-82
2023/10/14 06:09:00;;;;;;;9.05;1.65;;;9.50;99.90;;;;;;5023853;28;20355;-82
2023/10/14 06:11:26;;;;;;;9.98;1.77;;;9.50;99.90;;;;;;5029849;28;20081;-81
2023/10/14 06:13:52;;;;;;;12.02;1.98;;;9.50;99.90;;;;;;5029078;28;20102;-82
2023/10/14 06:16:17;;;;;;;12.25;2.22;;;9.50;99.90;;;;;;5047431;28;20449;-82
2023/10/14 06:18:47;;;;;;;6.25;1.50;;;9.50;99.90;;;;;;5047456;28;20045;-82
2023/10/14 06:21:15;;;;;;;11.15;1.85;;;9.50;99.90;;;;;;5046913;28;20068;-82
2023/10/14 06:23:47;;;;;;;10.80;1.90;;;9.50;99.90;;;;;;5049613;28;20053;-81
2023/10/14 06:26:16;;;;;;;10.73;2.10;;;9.50;99.90;;;;;;5033178;28;20146;-81
2023/10/14 06:28:42;;;;;;;8.50;1.90;;;9.50;99.90;;;;;;5050665;28;20041;-81
2023/10/14 06:31:08;;;;;;;10.05;1.90;;;9.50;99.90;;;;;;5016241;28;20186;-82
2023/10/14 06:33:34;;;;;;;12.55;2.53;;;9.60;99.90;;;;;;5032186;28;20049;-81
2023/10/14 06:36:03;;;;;;;7.35;1.60;;;9.50;99.90;;;;;;5033586;28;20065;-82
2023/10/14 06:38:29;;;;;;;7.82;2.03;;;9.50;99.90;;;;;;5049993;28;20059;-82
2023/10/14 06:41:01;;;;;;;7.80;1.90;;;9.70;99.90;;;;;;5050250;28;20142;-82
2023/10/14 06:43:27;;;;;;;10.98;2.20;;;9.50;99.90;;;;;;5032804;28;20053;-82
2023/10/14 06:45:56;;;;;;;12.52;2.90;;;9.60;99.90;;;;;;5033174;28;20131;-81
2023/10/14 06:48:22;;;;;;;9.10;2.05;;;9.60;99.90;;;;;;5033136;28;20445;-79
2023/10/14 06:50:48;;;;;;;7.95;1.80;;;9.70;99.90;;;;;;5033192;28;20045;-80
2023/10/14 06:53:15;;;;;;;6.60;1.95;;;9.70;99.90;;;;;;5050863;28;20036;-81
2023/10/14 06:56:00;;;;;;;8.77;1.92;;;9.80;99.90;;;;;;5031350;28;20060;-81
2023/10/14 06:58:28;;;;;;;11.80;2.22;;;9.80;99.90;;;;;;5032582;28;20096;-82
2023/10/14 07:00:59;;;;;;;10.60;1.80;;;9.90;99.90;;;;;;5049300;28;20053;-83
2023/10/14 07:03:25;;;;;;;10.20;2.58;;;9.90;99.90;;;;;;5032928;28;20087;-81
2023/10/14 07:08:27;;;;;;;8.57;1.87;;;10.00;99.90;;;;;;5029948;28;20055;-82
2023/10/14 07:10:54;;;;;;;12.10;2.13;;;10.10;99.90;;;;;;5021695;28;20131;-82
2023/10/14 07:13:21;;;;;;;11.13;1.85;;;10.10;99.90;;;;;;5050571;28;20049;-83
2023/10/14 07:15:48;;;;;;;15.70;2.13;;;10.20;99.90;;;;;;5032478;28;20171;-82
2023/10/14 07:18:18;;;;;;;13.10;1.92;;;10.20;99.90;;;;;;5031928;28;20037;-82
2023/10/14 07:20:47;;;;;;;11.00;2.30;;;10.30;99.90;;;;;;5032565;28;20095;-82
2023/10/14 07:23:13;;;;;;;9.45;1.98;;;10.40;99.90;;;;;;5031812;28;20061;-83
2023/10/14 07:25:42;;;;;;;8.68;2.10;;;10.40;99.90;;;;;;5030660;28;20044;-83
2023/10/14 07:28:13;;;;;;;11.95;2.30;;;11.00;99.90;;;;;;5049676;28;20079;-82
2023/10/14 07:30:48;;;;;;;10.35;2.17;;;10.60;99.90;;;;;;5032361;28;20055;-83
2023/10/14 07:33:14;;;;;;;9.77;2.50;;;10.60;99.90;;;;;;5048628;28;20045;-82
2023/10/14 07:35:40;;;;;;;8.43;2.10;;;10.70;99.90;;;;;;5020819;28;20048;-82
2023/10/14 07:38:06;;;;;;;12.82;1.83;;;10.70;99.90;;;;;;5049080;28;20045;-81
2023/10/14 07:40:34;;;;;;;10.95;1.88;;;10.80;99.90;;;;;;5049407;28;20119;-82
2023/10/14 07:43:08;;;;;;;11.48;2.15;;;10.90;99.90;;;;;;5031528;28;20053;-82
2023/10/14 07:45:44;;;;;;;9.98;2.50;;;11.00;99.90;;;;;;5032044;28;20136;-83
2023/10/14 07:48:13;;;;;;;12.95;2.10;;;11.10;99.90;;;;;;5050184;28;20076;-83
2023/10/14 07:50:40;;;;;;;12.95;2.58;;;11.20;99.90;;;;;;5031042;28;20073;-87
2023/10/14 07:53:12;;;;;;;10.43;1.92;;;11.30;99.90;;;;;;5015820;28;20083;-81
2023/10/14 07:55:42;;;;;;;14.50;2.67;;;12.00;99.90;;;;;;5049083;28;20064;-81
2023/10/14 07:58:08;;;;;;;11.65;1.90;;;11.50;99.90;;;;;;5031820;28;20053;-81
2023/10/14 08:00:39;;;;;;;6.90;2.17;;;11.60;99.90;;;;;;5031534;28;20494;-81
2023/10/14 08:03:09;;;;;;;11.05;2.55;;;12.40;99.90;;;;;;5049664;28;20037;-81
2023/10/14 08:05:38;;;;;;;11.45;2.03;;;11.80;99.90;;;;;;5049197;28;20871;-80
2023/10/14 08:08:13;;;;;;;11.70;2.08;;;11.80;99.90;;;;;;5031064;28;20049;-81
2023/10/14 08:10:45;;;;;;;12.57;2.53;;;11.90;99.90;;;;;;5028804;28;20053;-80
2023/10/14 08:13:12;;;;;;;10.20;1.88;;;11.90;99.90;;;;;;5018502;28;20490;-80
2023/10/14 08:15:38;;;;;;;9.38;2.10;;;12.00;99.90;;;;;;5049032;28;20072;-85
2023/10/14 08:18:07;;;;;;;17.25;2.28;;;12.10;99.90;;;;;;5032544;28;20072;-88
2023/10/14 08:20:34;;;;;;;9.77;2.08;;;12.20;99.90;;;;;;5031630;28;20053;-82
2023/10/14 08:23:00;;;;;;;8.43;1.90;;;12.60;99.90;;;;;;5031195;28;20128;-84
2023/10/14 08:25:26;;;;;;;12.15;2.83;;;12.70;99.90;;;;;;5030805;28;20048;-83
2023/10/14 08:27:53;;;;;;;7.47;1.88;;;12.70;99.90;;;;;;5049280;28;20131;-83
2023/10/14 08:30:24;;;;;;;11.40;2.47;;;12.50;99.90;;;;;;5031548;28;20706;-87
2023/10/14 08:32:51;;;;;;;11.18;2.53;;;12.50;99.90;;;;;;5031694;28;20747;-86
2023/10/14 08:35:17;;;;;;;12.80;3.00;;;12.60;99.90;;;;;;5049222;28;20126;-83
2023/10/14 08:37:48;;;;;;;8.38;1.42;;;12.70;99.90;;;;;;5031559;28;20040;-84
2023/10/14 08:40:19;;;;;;;8.67;2.27;;;12.80;99.90;;;;;;5029443;28;20036;-86
2023/10/14 08:43:07;;;;;;;13.68;2.35;;;12.80;99.90;;;;;;5030410;28;20049;-85
2023/10/14 08:45:38;;;;;;;10.50;2.28;;;12.90;99.90;;;;;;5030807;28;20044;-84
2023/10/14 08:48:05;;;;;;;17.63;2.95;;;13.00;99.90;;;;;;5031082;28;20036;-84
2023/10/14 08:50:34;;;;;;;11.63;2.30;;;13.10;99.90;;;;;;5047795;28;20044;-83
2023/10/14 08:53:09;;;;;;;9.35;2.58;;;13.20;99.90;;;;;;5030789;28;20041;-83
2023/10/14 08:55:37;;;;;;;7.63;2.05;;;13.20;99.90;;;;;;5048539;28;20118;-84
2023/10/14 08:58:05;;;;;;;11.88;2.28;;;13.30;99.90;;;;;;5030104;28;20036;-84
2023/10/14 09:00:36;;;;;;;9.43;1.83;;;14.00;99.90;;;;;;5016411;28;20045;-84
2023/10/14 09:03:05;;;;;;;7.85;2.13;;;13.10;99.90;;;;;;4994957;28;20057;-84
2023/10/14 09:05:31;;;;;;;5.10;1.60;;;13.10;99.90;;;;;;5026319;28;20076;-83
2023/10/14 09:08:00;;;;;;;8.65;2.60;;;13.10;99.90;;;;;;5042780;28;20041;-84
2023/10/14 09:10:26;;;;;;;8.23;2.38;;;13.40;99.90;;;;;;5028836;28;20034;-83
2023/10/14 09:12:59;;;;;;;8.80;2.20;;;13.20;99.90;;;;;;5011023;28;20128;-83
2023/10/14 09:15:29;;;;;;;14.82;2.72;;;13.30;99.90;;;;;;5027855;28;20037;-84
2023/10/14 09:17:56;;;;;;;9.82;1.73;;;13.30;99.90;;;;;;5030157;28;20152;-83
2023/10/14 09:20:36;;;;;;;7.93;2.10;;;13.40;99.90;;;;;;5026283;28;20058;-85
2023/10/14 09:23:40;;;;;;;11.02;1.98;;;13.50;99.90;;;;;;5026627;28;20119;-84
2023/10/14 09:26:06;;;;;;;12.02;2.72;;;13.60;99.90;;;;;;5023059;28;20129;-84
2023/10/14 09:28:40;;;;;;;8.73;2.30;;;13.70;99.90;;;;;;5006552;28;20555;-83
2023/10/14 09:31:09;;;;;;;9.40;1.95;;;13.80;99.90;;;;;;5005449;28;20532;-83
2023/10/14 09:33:35;;;;;;;14.02;2.70;;;13.80;99.90;;;;;;5011841;28;20057;-83
2023/10/14 09:36:04;;;;;;;8.15;2.42;;;14.20;99.90;;;;;;5024723;28;20047;-83
2023/10/14 09:38:34;;;;;;;7.78;1.88;;;14.00;99.90;;;;;;5008709;28;20478;-83
2023/10/14 09:41:05;;;;;;;8.93;2.03;;;14.10;99.90;;;;;;5022572;28;20037;-82
2023/10/14 09:43:32;;;;;;;9.95;1.95;;;14.10;99.90;;;;;;5024465;28;20467;-82
2023/10/14 09:46:08;;;;;;;5.97;1.50;;;14.20;99.90;;;;;;5026413;28;20569;-83
2023/10/14 09:48:35;;;;;;;4.95;1.27;;;14.20;99.90;;;;;;5024139;28;20053;-84
2023/10/14 09:51:03;;;;;;;9.40;2.00;;;14.20;99.90;;;;;;5025783;28;20053;-82
2023/10/14 09:53:34;;;;;;;9.93;2.28;;;14.20;99.90;;;;;;5026380;28;20487;-85
2023/10/14 09:56:04;;;;;;;6.43;1.83;;;14.30;99.90;;;;;;5024076;28;20541;-84
2023/10/14 09:58:35;;;;;;;9.95;1.60;;;14.30;99.90;;;;;;5025561;28;20535;-84
2023/10/14 10:01:05;;;;;;;5.70;1.55;;;14.30;99.90;;;;;;5029244;28;20041;-83
2023/10/14 10:03:38;;;;;;;10.65;2.10;;;14.20;99.90;;;;;;5025956;28;20127;-84
2023/10/14 10:06:11;;;;;;;6.43;1.60;;;14.00;99.90;;;;;;5025170;28;20495;-87
2023/10/14 10:08:52;;;;;;;7.28;1.45;;;14.30;99.90;;;;;;5024660;28;20519;-84
2023/10/14 10:11:23;;;;;;;5.90;1.80;;;14.40;99.90;;;;;;5025540;28;20072;-85
2023/10/14 10:13:54;;;;;;;8.60;1.67;;;14.00;99.90;;;;;;5025357;28;20148;-85
2023/10/14 10:16:28;;;;;;;9.13;2.38;;;14.00;99.90;;;;;;5025171;28;20096;-85
2023/10/14 10:18:58;;;;;;;8.63;1.83;;;14.40;99.90;;;;;;5025549;28;20053;-85
2023/10/14 10:21:40;;;;;;;5.68;1.60;;;14.20;99.90;;;;;;5026029;28;20056;-84
2023/10/14 10:24:31;;;;;;;7.38;1.73;;;14.20;99.90;;;;;;5024562;28;20573;-85
2023/10/14 10:27:03;;;;;;;7.78;2.22;;;14.30;99.90;;;;;;5025858;28;20080;-85
2023/10/14 10:29:35;;;;;;;7.55;1.63;;;14.40;99.90;;;;;;5026718;28;20049;-85
2023/10/14 10:32:06;;;;;;;10.40;1.75;;;14.40;99.90;;;;;;5026069;28;20351;-85
2023/10/14 10:34:33;;;;;;;5.85;1.52;;;14.50;99.90;;;;;;5024541;28;20049;-85
2023/10/14 10:37:03;;;;;;;6.78;1.95;;;14.90;99.90;;;;;;5009929;28;20059;-85
2023/10/14 10:39:31;;;;;;;9.18;2.25;;;14.70;99.90;;;;;;5009668;28;20045;-84
2023/10/14 10:41:57;;;;;;;9.93;1.55;;;14.70;99.90;;;;;;5024703;28;20050;-85
2023/10/14 10:44:29;;;;;;;10.90;1.80;;;14.70;99.90;;;;;;5026889;28;20091;-86
2023/10/14 10:46:56;;;;;;;6.45;1.42;;;14.70;99.90;;;;;;5024187;28;20056;-84
2023/10/14 10:49:51;;;;;;;7.10;1.80;;;14.80;99.90;;;;;;5024918;28;20038;-84
2023/10/14 10:52:16;;;;;;;8.88;1.88;;;15.00;99.90;;;;;;5023564;28;20183;-86
2023/10/14 10:54:43;;;;;;;7.30;1.40;;;15.20;99.90;;;;;;5026566;28;20125;-84
2023/10/14 10:57:13;;;;;;;4.78;1.55;;;15.40;99.90;;;;;;5026162;28;20057;-85
2023/10/14 10:59:39;;;;;;;6.40;1.20;;;15.10;99.90;;;;;;5026031;28;20056;-84
2023/10/14 11:02:09;;;;;;;5.90;1.10;;;14.50;99.90;;;;;;5026115;28;20077;-84
2023/10/14 11:04:34;;;;;;;4.65;1.20;;;14.00;99.90;;;;;;5025764;28;20048;-83
2023/10/14 11:07:00;;;;;;;5.85;1.20;;;13.40;99.90;;;;;;5025254;28;20053;-83
2023/10/14 11:09:31;;;;;;;3.80;0.90;;;12.90;99.90;;;;;;5012363;28;20049;-83
2023/10/14 11:12:01;;;;;;;3.28;1.00;;;12.60;99.90;;;;;;5009188;28;20136;-83
2023/10/14 11:14:26;;;;;;;5.22;1.20;;;12.50;99.90;;;;;;5010961;28;20038;-82
2023/10/14 11:16:57;;;;;;;4.80;1.23;;;12.30;99.90;;;;;;5015364;28;20099;-85
2023/10/14 11:19:26;;;;;;;5.25;1.20;;;12.20;99.90;;;;;;5030298;28;20034;-84
2023/10/14 11:21:53;;;;;;;6.25;1.52;;;12.20;99.90;;;;;;5049788;28;20053;-85
2023/10/14 11:24:19;;;;;;;6.65;1.33;;;12.20;99.90;;;;;;5029087;28;20057;-84
2023/10/14 11:26:45;;;;;;;5.80;1.52;;;12.30;99.90;;;;;;5030257;28;20044;-84
2023/10/14 11:29:11;;;;;;;5.00;1.08;;;12.50;99.90;;;;;;5052309;28;20052;-84
2023/10/14 11:31:39;;;;;;;8.48;1.60;;;12.70;99.90;;;;;;5051938;28;20090;-84
2023/10/14 11:34:06;;;;;;;6.60;1.42;;;12.90;99.90;;;;;;5052535;28;20071;-84
2023/10/14 11:36:32;;;;;;;4.60;1.15;;;13.20;99.90;;;;;;5033038;28;20582;-86
2023/10/14 11:39:01;;;;;;;7.30;1.30;;;13.40;99.90;;;;;;5030055;28;20148;-83
2023/10/14 11:41:27;;;;;;;3.47;0.77;;;13.70;99.90;;;;;;5015185;28;20986;-85
2023/10/14 11:43:53;;;;;;;6.32;1.33;;;14.30;99.90;;;;;;5032006;28;20088;-84
2023/10/14 11:46:19;;;;;;;5.20;1.13;;;14.30;99.90;;;;;;5015692;28;20045;-84
2023/10/14 11:48:48;;;;;;;4.07;0.80;;;14.40;99.90;;;;;;5031942;28;20447;-86
2023/10/14 11:51:21;;;;;;;3.65;1.17;;;14.40;99.90;;;;;;5031469;28;20098;-86
2023/10/14 11:53:52;;;;;;;3.78;0.88;;;14.40;99.90;;;;;;5050274;28;20092;-85
2023/10/14 11:56:19;;;;;;;5.55;1.20;;;14.30;99.90;;;;;;5017504;28;20037;-88
2023/10/14 11:58:45;;;;;;;3.63;1.05;;;14.30;99.90;;;;;;5028931;28;20411;-85
2023/10/14 12:01:12;;;;;;;7.75;1.40;;;14.40;99.90;;;;;;5031937;28;20186;-85
2023/10/14 12:03:40;;;;;;;4.97;1.02;;;14.40;99.90;;;;;;5030557;28;20045;-86
2023/10/14 12:06:08;;;;;;;4.28;0.98;;;14.50;99.90;;;;;;5032306;28;20068;-85
2023/10/14 12:08:39;;;;;;;4.25;1.52;;;14.50;99.90;;;;;;5031224;28;20114;-85
2023/10/14 12:11:08;;;;;;;4.20;1.25;;;15.10;99.90;;;;;;5031425;28;20045;-86
2023/10/14 12:13:34;;;;;;;3.50;1.08;;;14.90;99.90;;;;;;5015009;28;20080;-84
2023/10/14 12:16:05;;;;;;;5.35;1.27;;;14.20;99.90;;;;;;5031383;28;20079;-86
2023/10/14 12:18:35;;;;;;;4.70;1.25;;;13.80;99.90;;;;;;5030370;28;20064;-88
2023/10/14 12:21:01;;;;;;;10.48;1.92;;;13.90;99.90;;;;;;5030632;28;20055;-87
2023/10/14 12:23:29;;;;;;;9.40;2.35;;;13.30;99.90;;;;;;5031593;28;20140;-84
2023/10/14 12:25:55;;;;;;;4.75;1.75;;;13.10;99.90;;;;;;5030636;28;20135;-85
2023/10/14 12:28:26;;;;;;;4.72;1.23;;;12.90;99.90;;;;;;5031525;28;20124;-80
2023/10/14 12:30:53;;;;;;;10.07;1.45;;;12.80;99.90;;;;;;5049393;28;20084;-86
2023/10/14 12:33:19;;;;;;;3.35;1.10;;;13.30;99.90;;;;;;5014149;28;20119;-86
2023/10/14 12:35:51;;;;;;;5.78;1.20;;;12.60;99.90;;;;;;5029918;28;20052;-88
2023/10/14 12:38:26;;;;;;;6.13;1.40;;;13.00;99.90;;;;;;5011278;28;20053;-87
2023/10/14 12:40:52;;;;;;;8.38;1.33;;;13.40;99.90;;;;;;5010599;28;20487;-86
2023/10/14 12:43:27;;;;;;;5.13;1.77;;;12.80;99.90;;;;;;5027284;28;20087;-85
2023/10/14 12:46:19;;;;;;;6.90;2.20;;;12.80;99.90;;;;;;5031584;28;20045;-87
2023/10/14 12:48:48;;;;;;;6.00;1.43;;;12.70;99.90;;;;;;5030857;28;20130;-87
2023/10/14 12:51:20;;;;;;;4.28;1.30;;;12.60;99.90;;;;;;5031535;28;20110;-89
2023/10/14 12:53:46;;;;;;;7.03;1.60;;;12.40;99.90;;;;;;5031306;28;20049;-87
2023/10/14 12:56:22;;;;;;;7.60;1.70;;;12.30;99.90;;;;;;5030070;28;20053;-87
2023/10/14 12:58:48;;;;;;;12.98;1.80;;;12.30;99.90;;;;;;5031092;28;20041;-87
2023/10/14 13:01:19;;;;;;;6.25;1.80;;;12.40;99.90;;;;;;5030812;28;20495;-87
2023/10/14 13:03:51;;;;;;;7.10;1.90;;;12.50;99.90;;;;;;5014859;28;20486;-87
2023/10/14 13:06:22;;;;;;;6.43;1.60;;;12.70;99.90;;;;;;5030780;28;20095;-87
2023/10/14 13:08:58;;;;;;;7.53;1.92;;;12.90;99.90;;;;;;5028593;28;20041;-87
2023/10/14 13:11:28;;;;;;;9.05;1.80;;;13.00;99.90;;;;;;5030005;28;20187;-87
2023/10/14 13:13:55;;;;;;;7.88;2.17;;;13.10;99.90;;;;;;5012023;28;20045;-90
2023/10/14 13:16:21;;;;;;;8.50;1.80;;;13.20;99.90;;;;;;5027248;28;20159;-87
2023/10/14 13:18:47;;;;;;;9.60;1.70;;;13.40;99.90;;;;;;5029212;28;20057;-89
2023/10/14 13:21:19;;;;;;;9.43;1.83;;;13.40;99.90;;;;;;5028880;28;20418;-85
2023/10/14 13:23:46;;;;;;;6.70;1.88;;;13.30;99.90;;;;;;5048078;28;20052;-86
2023/10/14 13:26:15;;;;;;;6.30;1.95;;;13.30;99.90;;;;;;5026149;28;20138;-87
2023/10/14 13:28:45;;;;;;;7.93;1.85;;;13.40;99.90;;;;;;5011954;28;20045;-87
2023/10/14 13:31:15;;;;;;;8.98;1.63;;;13.50;99.90;;;;;;5014021;28;20363;-85
2023/10/14 13:33:41;;;;;;;7.78;1.85;;;13.50;99.90;;;;;;5026615;28;20041;-86
2023/10/14 13:36:10;;;;;;;7.10;1.73;;;13.40;99.90;;;;;;5028569;28;20079;-86
2023/10/14 13:38:39;;;;;;;9.25;2.10;;;13.30;99.90;;;;;;5024621;28;20037;-84
2023/10/14 13:41:07;;;;;;;9.93;2.40;;;13.20;99.90;;;;;;5038193;28;20061;-85
2023/10/14 13:43:33;;;;;;;10.52;1.67;;;13.20;99.90;;;;;;5022259;28;20067;-88
2023/10/14 13:45:58;;;;;;;10.77;2.35;;;13.20;99.90;;;;;;5017016;28;20141;-87
2023/10/14 13:48:24;;;;;;;8.15;2.10;;;13.20;99.90;;;;;;5028638;28;20434;-86
2023/10/14 13:50:54;;;;;;;7.43;1.77;;;13.20;99.90;;;;;;5029367;28;20049;-85